createdAt,value
2023-05-01T00:02:08.010Z,23.44
2023-05-01T00:04:36.313Z,23.62
2023-05-01T00:07:04.167Z,23.45
2023-05-01T00:09:32.395Z,23.59
2023-05-01T00:12:00.403Z,23.64
2023-05-01T00:14:29.213Z,23.64
2023-05-01T00:16:56.926Z,23.62
2023-05-01T00:19:24.993Z,23.59
2023-05-01T00:21:53.192Z,23.43
2023-05-01T00:24:20.955Z,23.57
2023-05-01T00:26:49.876Z,23.56
2023-05-01T00:29:18.716Z,23.27
2023-05-01T00:31:48.515Z,23.50
2023-05-01T00:34:16.975Z,23.41
2023-05-01T00:36:44.650Z,23.40
2023-05-01T00:39:12.421Z,23.39
2023-05-01T00:41:40.078Z,23.16
2023-05-01T00:44:07.884Z,23.49
2023-05-01T00:46:35.985Z,23.50
2023-05-01T00:49:04.253Z,23.50
2023-05-01T00:51:32.113Z,23.43
2023-05-01T00:54:00.558Z,23.47
2023-05-01T00:56:31.540Z,23.27
2023-05-01T00:59:00.132Z,23.24
2023-05-01T01:01:29.053Z,23.17
2023-05-01T01:03:56.913Z,23.43
2023-05-01T01:06:31.810Z,23.42
2023-05-01T01:09:14.779Z,23.44
2023-05-01T01:11:59.812Z,23.43
2023-05-01T01:14:43.339Z,23.38
2023-05-01T01:17:44.904Z,23.37
2023-05-01T01:20:44.415Z,23.35
2023-05-01T01:23:47.404Z,23.34
2023-05-01T01:26:15.141Z,23.30
2023-05-01T01:29:16.955Z,23.14
2023-05-01T01:32:01.599Z,23.25
2023-05-01T01:34:50.607Z,23.17
2023-05-01T01:37:33.148Z,22.99
2023-05-01T01:40:07.011Z,23.25
2023-05-01T01:42:43.367Z,23.24
2023-05-01T01:45:26.136Z,23.25
2023-05-01T01:47:56.557Z,23.24
2023-05-01T01:50:27.541Z,23.24
2023-05-01T01:52:58.798Z,23.19
2023-05-01T01:55:30.607Z,23.06
2023-05-01T01:58:01.230Z,23.17
2023-05-01T02:00:30.034Z,23.23
2023-05-01T02:03:01.209Z,23.23
2023-05-01T02:05:30.863Z,22.86
2023-05-01T02:07:59.986Z,23.03
2023-05-01T02:10:29.288Z,23.00
2023-05-01T02:13:00.154Z,23.08
2023-05-01T02:15:30.595Z,23.27
2023-05-01T02:18:01.652Z,23.17
2023-05-01T02:20:29.841Z,23.23
2023-05-01T02:22:58.932Z,23.18
2023-05-01T02:25:30.475Z,23.26
2023-05-01T02:28:02.179Z,23.26
2023-05-01T02:30:29.844Z,23.26
2023-05-01T02:32:58.040Z,22.99
2023-05-01T02:35:25.883Z,23.16
2023-05-01T02:37:53.889Z,23.29
2023-05-01T02:40:22.123Z,23.03
2023-05-01T02:42:52.191Z,23.28
2023-05-01T02:45:25.446Z,23.06
2023-05-01T02:48:00.113Z,23.22
2023-05-01T02:50:28.642Z,23.23
2023-05-01T02:52:57.093Z,23.16
2023-05-01T02:55:48.926Z,23.25
2023-05-01T02:58:18.695Z,23.23
2023-05-01T03:00:50.078Z,23.13
2023-05-01T03:03:19.008Z,23.22
2023-05-01T03:05:48.120Z,22.98
2023-05-01T03:08:16.098Z,22.97
2023-05-01T03:10:44.496Z,23.21
2023-05-01T03:13:12.580Z,23.15
2023-05-01T03:15:40.438Z,23.02
2023-05-01T03:18:08.415Z,23.22
2023-05-01T03:20:36.143Z,23.03
2023-05-01T03:23:04.983Z,23.14
2023-05-01T03:25:33.701Z,23.07
2023-05-01T03:28:02.395Z,23.19
2023-05-01T03:30:30.069Z,22.96
2023-05-01T03:32:58.032Z,23.09
2023-05-01T03:35:31.152Z,23.17
2023-05-01T03:37:59.317Z,23.11
2023-05-01T03:40:46.013Z,22.97
2023-05-01T03:43:32.333Z,23.21
2023-05-01T03:46:04.008Z,23.15
2023-05-01T03:48:32.344Z,23.20
2023-05-01T03:51:00.213Z,23.19
2023-05-01T03:53:30.930Z,22.99
2023-05-01T03:55:59.258Z,23.03
2023-05-01T03:58:28.710Z,22.88
2023-05-01T04:01:00.509Z,23.10
2023-05-01T04:03:31.260Z,23.12
2023-05-01T04:05:59.589Z,23.00
2023-05-01T04:08:27.575Z,23.20
2023-05-01T04:10:55.398Z,22.80
2023-05-01T04:13:23.138Z,23.19
2023-05-01T04:15:51.360Z,22.99
2023-05-01T04:18:19.255Z,22.99
2023-05-01T04:20:47.144Z,23.24
2023-05-01T04:23:16.142Z,23.05
2023-05-01T04:25:44.603Z,23.27
2023-05-01T04:28:16.761Z,22.95
2023-05-01T04:30:44.462Z,23.07
2023-05-01T04:33:12.355Z,23.25
2023-05-01T04:35:41.761Z,23.24
2023-05-01T04:38:12.972Z,23.11
2023-05-01T04:40:42.342Z,23.09
2023-05-01T04:43:12.158Z,23.10
2023-05-01T04:45:40.629Z,22.84
2023-05-01T04:48:08.583Z,23.17
2023-05-01T04:50:37.814Z,23.22
2023-05-01T04:53:05.433Z,22.95
2023-05-01T04:55:36.072Z,23.20
2023-05-01T04:58:08.259Z,23.22
2023-05-01T05:00:37.398Z,23.20
2023-05-01T05:03:08.906Z,23.14
2023-05-01T05:05:37.221Z,23.23
2023-05-01T05:08:07.531Z,23.10
2023-05-01T05:10:37.044Z,23.25
2023-05-01T05:13:28.360Z,23.21
2023-05-01T05:16:05.655Z,23.00
2023-05-01T05:18:33.526Z,23.01
2023-05-01T05:21:05.531Z,23.22
2023-05-01T05:23:33.557Z,23.11
2023-05-01T05:26:01.885Z,23.22
2023-05-01T05:28:33.432Z,23.22
2023-05-01T05:31:03.267Z,22.99
2023-05-01T05:33:31.073Z,23.06
2023-05-01T05:36:00.086Z,23.08
2023-05-01T05:38:33.441Z,23.15
2023-05-01T05:41:02.166Z,22.95
2023-05-01T05:43:32.547Z,23.06
2023-05-01T05:46:02.454Z,22.87
2023-05-01T05:48:33.311Z,23.14
2023-05-01T05:51:01.495Z,22.93
2023-05-01T05:53:29.494Z,22.97
2023-05-01T05:55:57.459Z,23.20
2023-05-01T05:58:25.858Z,23.12
2023-05-01T06:00:55.781Z,23.20
2023-05-01T06:03:24.011Z,23.19
2023-05-01T06:05:57.553Z,23.10
2023-05-01T06:08:25.445Z,23.02
2023-05-01T06:10:53.436Z,23.18
2023-05-01T06:13:21.988Z,23.04
2023-05-01T06:15:50.765Z,23.07
2023-05-01T06:18:18.656Z,23.09
2023-05-01T06:20:47.518Z,23.23
2023-05-01T06:23:15.736Z,23.22
2023-05-01T06:26:03.834Z,23.17
2023-05-01T06:28:31.781Z,23.29
2023-05-01T06:30:59.664Z,23.22
2023-05-01T06:33:34.666Z,23.03
2023-05-01T06:36:12.341Z,23.24
2023-05-01T06:38:41.612Z,23.09
2023-05-01T06:41:11.028Z,23.04
2023-05-01T06:43:39.044Z,22.84
2023-05-01T06:46:07.005Z,23.19
2023-05-01T06:48:34.809Z,23.25
2023-05-01T06:51:02.593Z,23.02
2023-05-01T06:53:30.478Z,23.37
2023-05-01T06:55:59.022Z,23.39
2023-05-01T06:58:27.606Z,23.41
2023-05-01T07:00:55.477Z,23.24
2023-05-01T07:03:27.726Z,23.32
2023-05-01T07:05:56.222Z,23.26
2023-05-01T07:08:24.521Z,23.40
2023-05-01T07:10:52.219Z,23.32
2023-05-01T07:13:20.157Z,23.41
2023-05-01T07:15:49.018Z,23.27
2023-05-01T07:18:17.458Z,23.33
2023-05-01T07:20:45.842Z,23.20
2023-05-01T07:23:13.518Z,23.44
2023-05-01T07:25:45.349Z,23.30
2023-05-01T07:28:13.423Z,23.22
2023-05-01T07:30:41.310Z,23.41
2023-05-01T07:33:08.999Z,23.47
2023-05-01T07:35:36.855Z,23.16
2023-05-01T07:38:05.141Z,23.46
2023-05-01T07:40:35.250Z,23.24
2023-05-01T07:43:03.126Z,23.45
2023-05-01T07:45:31.358Z,23.38
2023-05-01T07:47:59.947Z,23.40
2023-05-01T07:50:27.778Z,23.29
2023-05-01T07:52:56.118Z,23.33
2023-05-01T07:55:24.972Z,23.48
2023-05-01T07:57:52.686Z,23.51
2023-05-01T08:00:20.715Z,23.51
2023-05-01T08:02:49.349Z,23.42
2023-05-01T08:05:17.215Z,23.39
2023-05-01T08:07:45.624Z,23.54
2023-05-01T08:10:13.484Z,23.44
2023-05-01T08:12:41.340Z,23.24
2023-05-01T08:15:09.463Z,23.49
2023-05-01T08:17:37.428Z,23.26
2023-05-01T08:20:05.779Z,23.51
2023-05-01T08:22:33.917Z,23.17
2023-05-01T08:25:01.687Z,23.57
2023-05-01T08:27:29.385Z,23.51
2023-05-01T08:29:57.215Z,23.39
2023-05-01T08:32:28.206Z,23.46
2023-05-01T08:34:56.049Z,23.44
2023-05-01T08:37:23.908Z,23.58
2023-05-01T08:39:51.862Z,23.66
2023-05-01T08:42:20.296Z,23.78
2023-05-01T08:44:49.512Z,23.59
2023-05-01T08:47:18.506Z,23.61
2023-05-01T08:49:47.424Z,23.83
2023-05-01T08:52:15.790Z,23.64
2023-05-01T08:54:45.081Z,23.94
2023-05-01T08:57:13.614Z,23.84
2023-05-01T08:59:41.478Z,23.95
2023-05-01T09:02:10.573Z,23.88
2023-05-01T09:04:40.756Z,24.19
2023-05-01T09:07:09.996Z,24.11
2023-05-01T09:09:37.905Z,24.09
2023-05-01T09:12:26.063Z,24.29
2023-05-01T09:14:56.282Z,24.05
2023-05-01T09:17:24.809Z,24.27
2023-05-01T09:19:53.629Z,24.20
2023-05-01T09:22:21.726Z,24.23
2023-05-01T09:24:49.789Z,24.22
2023-05-01T09:27:17.576Z,24.22
2023-05-01T09:29:47.753Z,24.22
2023-05-01T09:32:24.958Z,24.08
2023-05-01T09:34:55.016Z,23.99
2023-05-01T09:37:31.602Z,24.16
2023-05-01T09:40:07.020Z,24.15
2023-05-01T09:42:37.505Z,23.93
2023-05-01T09:45:12.185Z,23.89
2023-05-01T09:47:40.912Z,23.96
2023-05-01T09:50:09.194Z,23.81
2023-05-01T09:52:37.354Z,23.82
2023-05-01T09:55:16.432Z,24.02
2023-05-01T09:57:46.602Z,23.91
2023-05-01T10:00:16.284Z,23.95
2023-05-01T10:02:46.821Z,23.81
2023-05-01T10:05:15.768Z,23.58
2023-05-01T10:07:58.954Z,23.99
2023-05-01T10:10:26.951Z,23.95
2023-05-01T10:12:55.260Z,23.96
2023-05-01T10:15:26.518Z,23.65
2023-05-01T10:17:55.723Z,23.85
2023-05-01T10:20:26.534Z,23.99
2023-05-01T10:22:54.562Z,24.02
2023-05-01T10:25:25.239Z,23.88
2023-05-01T10:27:53.817Z,23.93
2023-05-01T10:30:22.411Z,24.08
2023-05-01T10:32:50.236Z,24.09
2023-05-01T10:35:34.726Z,23.88
2023-05-01T10:38:06.685Z,24.16
2023-05-01T10:40:43.750Z,24.15
2023-05-01T10:43:17.662Z,24.14
2023-05-01T10:45:48.007Z,23.87
2023-05-01T10:48:40.927Z,24.15
2023-05-01T10:51:17.277Z,23.92
2023-05-01T10:53:47.087Z,24.12
2023-05-01T10:56:30.350Z,24.12
2023-05-01T10:59:07.577Z,23.91
2023-05-01T11:01:41.370Z,24.10
2023-05-01T11:04:27.393Z,24.10
2023-05-01T11:07:11.413Z,24.09
2023-05-01T11:09:57.734Z,24.08
2023-05-01T11:12:48.626Z,24.09
2023-05-01T11:15:26.560Z,24.05
2023-05-01T11:17:54.811Z,23.84
2023-05-01T11:20:25.598Z,24.07
2023-05-01T11:22:58.048Z,23.83
2023-05-01T11:25:33.221Z,23.94
2023-05-01T11:28:02.999Z,24.05
2023-05-01T11:30:37.992Z,23.92
2023-05-01T11:33:10.140Z,24.03
2023-05-01T11:35:39.476Z,24.08
2023-05-01T11:38:18.761Z,24.02
2023-05-01T11:40:55.688Z,23.95
2023-05-01T11:43:23.801Z,23.88
2023-05-01T11:45:55.004Z,23.82
2023-05-01T11:48:23.037Z,23.64
2023-05-01T11:50:51.283Z,23.64
2023-05-01T11:53:19.312Z,23.36
2023-05-01T11:55:47.384Z,23.58
2023-05-01T11:58:15.138Z,23.69
2023-05-01T12:00:43.999Z,23.53
2023-05-01T12:03:14.574Z,23.82
2023-05-01T12:05:45.489Z,23.83
2023-05-01T12:08:21.317Z,23.82
2023-05-01T12:10:56.532Z,23.79
2023-05-01T12:13:25.383Z,23.73
2023-05-01T12:15:55.341Z,23.57
2023-05-01T12:18:23.490Z,23.72
2023-05-01T12:20:53.857Z,23.75
2023-05-01T12:23:36.321Z,23.66
2023-05-01T12:26:22.446Z,23.55
2023-05-01T12:29:10.581Z,23.46
2023-05-01T12:31:47.680Z,23.55
2023-05-01T12:34:15.694Z,23.85
2023-05-01T12:36:53.462Z,23.83
2023-05-01T12:39:23.637Z,23.93
2023-05-01T12:41:51.823Z,23.43
2023-05-01T12:44:27.187Z,23.94
2023-05-01T12:47:02.154Z,23.95
2023-05-01T12:49:32.768Z,23.70
2023-05-01T12:52:01.641Z,23.72
2023-05-01T12:54:33.273Z,23.88
2023-05-01T12:57:18.173Z,23.91
2023-05-01T13:00:03.167Z,23.89
2023-05-01T13:02:33.123Z,23.72
2023-05-01T13:05:11.901Z,23.84
2023-05-01T13:07:48.862Z,23.83
2023-05-01T13:10:29.876Z,23.78
2023-05-01T13:12:58.557Z,23.70
2023-05-01T13:15:26.518Z,23.80
2023-05-01T13:17:54.372Z,23.64
2023-05-01T13:20:32.028Z,23.66
2023-05-01T13:22:59.819Z,23.63
2023-05-01T13:25:27.821Z,23.73
2023-05-01T13:27:55.647Z,23.59
2023-05-01T13:30:34.435Z,23.63
2023-05-01T13:33:04.053Z,23.48
2023-05-01T13:35:39.925Z,23.63
2023-05-01T13:38:12.800Z,23.56
2023-05-01T13:40:41.580Z,23.55
2023-05-01T13:43:17.227Z,23.55
2023-05-01T13:45:47.499Z,23.57
2023-05-01T13:48:17.665Z,23.52
2023-05-01T13:50:45.584Z,23.57
2023-05-01T13:53:14.805Z,23.54
2023-05-01T13:55:43.902Z,23.36
2023-05-01T13:58:11.727Z,23.51
2023-05-01T14:00:40.214Z,23.30
2023-05-01T14:03:10.873Z,23.50
2023-05-01T14:05:40.288Z,23.40
2023-05-01T14:08:08.903Z,23.54
2023-05-01T14:10:36.768Z,23.27
2023-05-01T14:13:05.566Z,23.58
2023-05-01T14:15:37.139Z,23.55
2023-05-01T14:18:06.938Z,23.36
2023-05-01T14:20:34.673Z,23.60
2023-05-01T14:23:02.645Z,23.43
2023-05-01T14:25:34.142Z,23.53
2023-05-01T14:28:08.084Z,23.49
2023-05-01T14:30:38.380Z,23.55
2023-05-01T14:33:15.585Z,23.58
2023-05-01T14:35:51.123Z,23.68
2023-05-01T14:38:20.304Z,23.57
2023-05-01T14:40:48.504Z,23.46
2023-05-01T14:43:22.296Z,23.57
2023-05-01T14:45:50.315Z,23.45
2023-05-01T14:48:23.235Z,23.60
2023-05-01T14:50:51.984Z,23.70
2023-05-01T14:53:19.896Z,23.37
2023-05-01T14:55:51.281Z,23.56
2023-05-01T14:58:19.985Z,23.61
2023-05-01T15:00:47.641Z,23.67
2023-05-01T15:03:15.642Z,23.71
2023-05-01T15:05:44.643Z,23.71
2023-05-01T15:08:12.468Z,23.58
2023-05-01T15:10:40.421Z,23.47
2023-05-01T15:13:09.284Z,23.71
2023-05-01T15:15:37.018Z,23.64
2023-05-01T15:18:04.842Z,23.75
2023-05-01T15:20:33.448Z,23.72
2023-05-01T15:23:01.227Z,23.64
2023-05-01T15:25:29.088Z,23.52
2023-05-01T15:27:57.411Z,23.57
2023-05-01T15:30:25.356Z,23.38
2023-05-01T15:32:55.853Z,23.69
2023-05-01T15:35:24.012Z,23.49
2023-05-01T15:37:52.093Z,23.61
2023-05-01T15:40:20.476Z,23.57
2023-05-01T15:42:48.328Z,23.76
2023-05-01T15:45:16.161Z,23.52
2023-05-01T15:47:44.159Z,23.46
2023-05-01T15:50:12.310Z,23.72
2023-05-01T15:52:40.398Z,23.64
2023-05-01T15:55:08.698Z,23.67
2023-05-01T15:57:36.475Z,23.72
2023-05-01T16:00:04.935Z,23.63
2023-05-01T16:02:33.783Z,23.67
2023-05-01T16:05:01.741Z,23.56
2023-05-01T16:07:29.988Z,23.76
2023-05-01T16:09:58.548Z,23.75
2023-05-01T16:12:29.810Z,23.80
2023-05-01T16:14:57.734Z,23.63
2023-05-01T16:17:25.699Z,23.83
2023-05-01T16:19:55.352Z,23.85
2023-05-01T16:22:23.238Z,23.88
2023-05-01T16:24:51.096Z,23.71
2023-05-01T16:27:19.159Z,23.78
2023-05-01T16:29:47.022Z,23.48
2023-05-01T16:32:17.024Z,23.86
2023-05-01T16:34:45.261Z,23.66
2023-05-01T16:37:15.736Z,23.67
2023-05-01T16:39:43.722Z,23.63
2023-05-01T16:42:15.128Z,23.65
2023-05-01T16:44:42.730Z,23.67
2023-05-01T16:47:12.663Z,23.45
2023-05-01T16:49:42.406Z,23.56
2023-05-01T16:52:14.232Z,23.49
2023-05-01T16:54:42.161Z,23.66
2023-05-01T16:57:10.286Z,23.67
2023-05-01T16:59:38.295Z,23.52
2023-05-01T17:02:07.088Z,23.59
2023-05-01T17:04:35.108Z,23.76
2023-05-01T17:07:03.073Z,23.50
2023-05-01T17:09:31.463Z,23.63
2023-05-01T17:12:00.942Z,23.77
2023-05-01T17:14:30.577Z,23.69
2023-05-01T17:17:01.444Z,23.51
2023-05-01T17:19:30.473Z,23.66
2023-05-01T17:21:58.614Z,23.56
2023-05-01T17:24:27.240Z,23.26
2023-05-01T17:26:55.721Z,23.73
2023-05-01T17:29:24.192Z,23.59
2023-05-01T17:31:52.066Z,23.53
2023-05-01T17:34:19.937Z,23.49
2023-05-01T17:36:47.816Z,23.72
2023-05-01T17:39:16.098Z,23.70
2023-05-01T17:41:43.919Z,23.72
2023-05-01T17:44:11.707Z,23.34
2023-05-01T17:46:40.460Z,23.69
2023-05-01T17:49:11.044Z,23.49
2023-05-01T17:51:38.769Z,23.61
2023-05-01T17:54:06.631Z,23.60
2023-05-01T17:56:34.430Z,23.70
2023-05-01T17:59:02.178Z,23.37
2023-05-01T18:01:30.792Z,23.43
2023-05-01T18:03:58.753Z,23.67
2023-05-01T18:06:26.583Z,23.50
2023-05-01T18:08:54.449Z,23.41
2023-05-01T18:11:22.142Z,23.35
2023-05-01T18:13:49.868Z,23.65
2023-05-01T18:16:18.986Z,23.39
2023-05-01T18:18:48.452Z,23.59
2023-05-01T18:21:17.074Z,23.61
2023-05-01T18:23:46.472Z,23.53
2023-05-01T18:26:16.812Z,23.34
2023-05-01T18:28:44.633Z,23.65
2023-05-01T18:31:13.781Z,23.61
2023-05-01T18:33:41.523Z,23.58
2023-05-01T18:36:10.864Z,23.64
2023-05-01T18:38:38.817Z,23.65
2023-05-01T18:41:07.856Z,23.47
2023-05-01T18:43:36.091Z,23.42
2023-05-01T18:46:03.868Z,23.48
2023-05-01T18:48:31.624Z,23.62
2023-05-01T18:51:08.507Z,23.62
2023-05-01T18:53:37.669Z,23.41
2023-05-01T18:56:06.681Z,23.64
2023-05-01T18:58:37.776Z,23.44
2023-05-01T19:01:06.819Z,23.61
2023-05-01T19:03:35.206Z,21.89
2023-05-01T19:06:04.736Z,23.63
2023-05-01T19:08:33.088Z,23.57
2023-05-01T19:11:02.943Z,23.60
2023-05-01T19:13:34.750Z,23.34
2023-05-01T19:16:07.889Z,23.59
2023-05-01T19:18:38.582Z,23.54
2023-05-01T19:21:07.764Z,23.18
2023-05-01T19:23:38.034Z,22.36
2023-05-01T19:26:06.827Z,23.58
2023-05-01T19:28:37.560Z,23.40
2023-05-01T19:31:07.997Z,22.92
2023-05-01T19:33:36.921Z,21.89
2023-05-01T19:36:06.055Z,21.97
2023-05-01T19:38:34.303Z,22.19
2023-05-01T19:41:02.430Z,23.05
2023-05-01T19:43:30.704Z,22.75
2023-05-01T19:46:00.150Z,22.96
2023-05-01T19:48:28.754Z,22.74
2023-05-01T19:50:56.634Z,23.58
2023-05-01T19:53:24.752Z,23.12
2023-05-01T19:55:52.433Z,23.20
2023-05-01T19:58:20.520Z,23.26
2023-05-01T20:00:48.488Z,23.54
2023-05-01T20:03:16.869Z,23.54
2023-05-01T20:05:44.684Z,23.56
2023-05-01T20:08:13.018Z,23.42
2023-05-01T20:10:40.837Z,23.56
2023-05-01T20:13:10.780Z,23.44
2023-05-01T20:15:40.210Z,23.34
2023-05-01T20:18:08.269Z,23.54
2023-05-01T20:20:36.362Z,23.28
2023-05-01T20:23:12.054Z,23.26
2023-05-01T20:25:39.978Z,23.50
2023-05-01T20:28:09.714Z,23.43
2023-05-01T20:30:40.401Z,23.49
2023-05-01T20:33:08.405Z,23.45
2023-05-01T20:35:36.317Z,23.45
2023-05-01T20:38:06.902Z,23.44
2023-05-01T20:40:37.061Z,23.42
2023-05-01T20:43:04.809Z,23.34
2023-05-01T20:45:32.935Z,23.25
2023-05-01T20:48:02.049Z,23.44
2023-05-01T20:50:29.997Z,23.26
2023-05-01T20:52:57.788Z,23.32
2023-05-01T20:55:26.690Z,23.31
2023-05-01T20:57:54.511Z,23.32
2023-05-01T21:00:22.266Z,23.39
2023-05-01T21:02:52.015Z,23.40
2023-05-01T21:05:19.991Z,23.19
2023-05-01T21:07:48.232Z,23.20
2023-05-01T21:10:16.767Z,23.39
2023-05-01T21:12:44.762Z,23.27
2023-05-01T21:15:12.608Z,23.24
2023-05-01T21:17:41.197Z,23.31
2023-05-01T21:20:19.231Z,23.24
2023-05-01T21:22:48.852Z,23.30
2023-05-01T21:25:27.023Z,23.15
2023-05-01T21:27:55.798Z,23.38
2023-05-01T21:30:33.170Z,23.31
2023-05-01T21:33:02.669Z,23.28
2023-05-01T21:35:31.490Z,23.33
2023-05-01T21:38:00.139Z,23.39
2023-05-01T21:40:28.372Z,23.15
2023-05-01T21:42:56.632Z,23.41
2023-05-01T21:45:24.798Z,23.43
2023-05-01T21:47:52.967Z,23.34
2023-05-01T21:50:21.603Z,23.29
2023-05-01T21:52:50.198Z,23.10
2023-05-01T21:55:19.582Z,23.41
2023-05-01T21:57:47.635Z,23.24
2023-05-01T22:00:15.982Z,23.42
2023-05-01T22:02:45.814Z,23.39
2023-05-01T22:05:15.125Z,23.40
2023-05-01T22:07:45.208Z,23.42
2023-05-01T22:10:18.045Z,23.43
2023-05-01T22:12:49.593Z,23.43
2023-05-01T22:15:17.789Z,23.43
2023-05-01T22:17:45.702Z,23.23
2023-05-01T22:20:13.587Z,23.41
2023-05-01T22:22:43.248Z,23.28
2023-05-01T22:25:12.359Z,23.39
2023-05-01T22:27:40.840Z,23.31
2023-05-01T22:30:08.949Z,23.32
2023-05-01T22:32:36.818Z,23.09
2023-05-01T22:35:04.932Z,23.28
2023-05-01T22:37:32.934Z,23.34
2023-05-01T22:40:00.906Z,23.17
2023-05-01T22:42:28.996Z,23.16
2023-05-01T22:44:56.816Z,23.26
2023-05-01T22:47:24.593Z,22.94
2023-05-01T22:49:52.345Z,23.34
2023-05-01T22:52:20.000Z,23.12
2023-05-01T22:54:47.635Z,23.06
2023-05-01T22:57:15.649Z,23.13
2023-05-01T22:59:44.114Z,22.88
2023-05-01T23:02:16.928Z,23.03
2023-05-01T23:04:44.628Z,23.24
2023-05-01T23:07:15.898Z,23.23
2023-05-01T23:09:43.551Z,23.16
2023-05-01T23:12:19.157Z,23.21
2023-05-01T23:14:47.230Z,23.21
2023-05-01T23:17:15.795Z,23.21
2023-05-01T23:19:43.827Z,22.86
2023-05-01T23:22:13.202Z,23.02
2023-05-01T23:24:49.430Z,23.20
2023-05-01T23:27:19.367Z,22.92
2023-05-01T23:29:58.756Z,23.14
2023-05-01T23:32:29.402Z,23.07
2023-05-01T23:35:13.246Z,23.03
2023-05-01T23:37:41.232Z,23.12
2023-05-01T23:40:09.634Z,23.09
2023-05-01T23:42:38.461Z,23.01
2023-05-01T23:45:08.042Z,22.97
2023-05-01T23:47:37.290Z,23.16
2023-05-01T23:50:06.164Z,23.11
2023-05-01T23:52:34.284Z,23.03
2023-05-01T23:55:02.168Z,22.85
2023-05-01T23:57:29.885Z,23.12
2023-05-01T23:59:57.878Z,23.08
